createdAt,value
2022-11-03T05:02:56.681Z,3.30
2022-11-03T05:05:28.430Z,3.20
2022-11-03T05:08:00.057Z,3.20
2022-11-03T05:10:31.675Z,3.27
2022-11-03T05:13:03.499Z,3.50
2022-11-03T05:15:36.974Z,3.03
2022-11-03T05:18:15.744Z,3.40
2022-11-03T05:20:49.840Z,3.90
2022-11-03T05:23:21.607Z,3.30
2022-11-03T05:25:53.670Z,3.90
2022-11-03T05:28:27.118Z,3.60
2022-11-03T05:30:58.793Z,3.30
2022-11-03T05:33:33.846Z,2.80
2022-11-03T05:36:11.570Z,3.33
2022-11-03T05:38:43.249Z,3.30
2022-11-03T05:41:16.299Z,3.20
2022-11-03T05:43:52.648Z,3.80
2022-11-03T05:46:24.564Z,3.77
2022-11-03T05:48:57.622Z,3.97
2022-11-03T05:51:31.873Z,3.30
2022-11-03T05:54:04.635Z,3.77
2022-11-03T05:56:36.296Z,3.77
2022-11-03T05:59:10.556Z,3.67
2022-11-03T06:01:42.320Z,3.50
2022-11-03T06:04:19.157Z,3.67
2022-11-03T06:06:51.967Z,2.80
2022-11-03T06:09:24.387Z,3.10
2022-11-03T06:11:56.967Z,3.57
2022-11-03T06:14:30.110Z,3.13
2022-11-03T06:17:02.738Z,3.10
2022-11-03T06:19:37.267Z,3.47
2022-11-03T06:22:12.447Z,3.10
2022-11-03T06:24:44.136Z,3.20
2022-11-03T06:27:16.055Z,3.07
2022-11-03T06:29:49.780Z,3.27
2022-11-03T06:32:21.449Z,3.03
2022-11-03T06:34:55.039Z,3.67
2022-11-03T06:37:27.524Z,3.73
2022-11-03T06:40:00.619Z,3.20
2022-11-03T06:42:32.375Z,3.10
2022-11-03T06:45:12.178Z,3.43
2022-11-03T06:47:43.787Z,3.50
2022-11-03T06:50:22.136Z,3.40
2022-11-03T06:52:53.769Z,3.70
2022-11-03T06:55:26.458Z,3.90
2022-11-03T06:57:59.356Z,3.20
2022-11-03T07:00:35.720Z,3.40
2022-11-03T07:03:10.607Z,3.40
2022-11-03T07:05:43.560Z,3.40
2022-11-03T07:08:20.628Z,3.63
2022-11-03T07:10:56.855Z,3.93
2022-11-03T07:13:28.963Z,3.47
2022-11-03T07:16:00.545Z,3.40
2022-11-03T07:18:34.190Z,3.57
2022-11-03T07:21:15.669Z,3.33
2022-11-03T07:23:47.428Z,3.30
2022-11-03T07:26:19.085Z,3.83
2022-11-03T07:28:50.643Z,3.00
2022-11-03T07:31:23.640Z,3.53
2022-11-03T07:33:56.300Z,3.60
2022-11-03T07:36:29.245Z,3.57
2022-11-03T07:39:00.878Z,3.57
2022-11-03T07:41:34.403Z,3.20
2022-11-03T07:44:08.756Z,3.53
2022-11-03T07:46:40.342Z,2.93
2022-11-03T07:49:19.803Z,2.88
2022-11-03T07:51:52.756Z,3.10
2022-11-03T07:54:25.441Z,3.50
2022-11-03T07:56:58.334Z,3.28
2022-11-03T07:59:32.441Z,3.47
2022-11-03T08:02:13.184Z,4.20
2022-11-03T08:04:44.843Z,3.55
2022-11-03T08:07:17.894Z,3.10
2022-11-03T08:09:49.499Z,2.85
2022-11-03T08:12:21.168Z,4.03
2022-11-03T08:14:52.743Z,3.13
2022-11-03T08:17:24.382Z,3.28
2022-11-03T08:19:55.981Z,3.30
2022-11-03T08:22:28.939Z,3.70
2022-11-03T08:25:00.523Z,3.40
2022-11-03T08:27:32.136Z,3.05
2022-11-03T08:30:04.034Z,4.15
2022-11-03T08:32:35.647Z,6.35
2022-11-03T08:35:07.848Z,3.75
2022-11-03T08:37:40.779Z,3.95
2022-11-03T08:40:12.663Z,3.10
2022-11-03T08:42:44.311Z,3.10
2022-11-03T08:45:16.032Z,3.08
2022-11-03T08:47:47.632Z,2.90
2022-11-03T08:50:19.195Z,3.30
2022-11-03T08:52:52.139Z,3.00
2022-11-03T08:55:23.692Z,3.10
2022-11-03T08:57:55.273Z,3.40
2022-11-03T09:00:26.869Z,3.17
2022-11-03T09:02:58.443Z,3.78
2022-11-03T09:05:30.040Z,3.50
2022-11-03T09:10:54.610Z,2.97
2022-11-03T09:13:26.223Z,3.05
2022-11-03T09:15:57.828Z,3.40
2022-11-03T09:18:29.426Z,2.78
2022-11-03T09:21:01.021Z,2.92
2022-11-03T09:23:33.967Z,2.97
2022-11-03T09:26:05.745Z,3.10
2022-11-03T09:28:37.329Z,3.45
2022-11-03T09:31:08.931Z,3.10
2022-11-03T09:33:40.584Z,3.00
2022-11-03T09:36:12.216Z,3.13
2022-11-03T09:38:45.177Z,3.35
2022-11-03T09:41:26.428Z,2.90
2022-11-03T09:43:59.909Z,3.00
2022-11-03T09:46:31.500Z,2.65
2022-11-03T09:49:03.115Z,2.90
2022-11-03T09:51:35.539Z,3.10
2022-11-03T09:54:11.443Z,2.30
2022-11-03T09:56:43.228Z,3.25
2022-11-03T09:59:15.596Z,2.63
2022-11-03T10:01:47.906Z,2.75
2022-11-03T10:04:21.490Z,2.55
2022-11-03T10:06:53.197Z,2.65
2022-11-03T10:09:26.169Z,3.30
2022-11-03T10:11:57.773Z,3.00
2022-11-03T10:14:29.429Z,2.83
2022-11-03T10:17:01.084Z,2.70
2022-11-03T10:19:32.909Z,2.97
2022-11-03T10:22:04.564Z,3.15
2022-11-03T10:24:37.548Z,2.80
2022-11-03T10:27:20.496Z,2.70
2022-11-03T10:30:10.429Z,3.05
2022-11-03T10:32:42.133Z,2.65
2022-11-03T10:35:31.578Z,2.97
2022-11-03T10:38:20.200Z,2.55
2022-11-03T10:40:53.194Z,2.60
2022-11-03T10:43:24.879Z,2.60
2022-11-03T10:46:23.476Z,2.75
2022-11-03T10:49:02.716Z,3.00
2022-11-03T10:51:35.549Z,2.42
2022-11-03T10:54:11.306Z,2.53
2022-11-03T10:56:44.663Z,2.63
2022-11-03T10:59:17.362Z,2.30
2022-11-03T11:01:49.137Z,2.60
2022-11-03T11:04:21.041Z,2.77
2022-11-03T11:06:52.865Z,2.40
2022-11-03T11:09:25.351Z,2.53
2022-11-03T11:12:02.608Z,2.35
2022-11-03T11:14:36.132Z,3.40
2022-11-03T11:17:29.229Z,2.22
2022-11-03T11:20:28.786Z,2.50
2022-11-03T11:23:49.639Z,2.42
2022-11-03T11:26:31.779Z,2.40
2022-11-03T11:29:43.249Z,2.60
2022-11-03T11:32:51.283Z,2.08
2022-11-03T11:36:02.565Z,2.25
2022-11-03T11:39:07.791Z,2.05
2022-11-03T11:42:07.776Z,2.38
2022-11-03T11:44:53.127Z,2.70
2022-11-03T11:47:47.537Z,2.30
2022-11-03T11:50:23.876Z,2.38
2022-11-03T11:53:13.961Z,2.53
2022-11-03T11:55:51.097Z,2.28
2022-11-03T11:58:29.648Z,2.80
2022-11-03T12:01:01.852Z,3.70
2022-11-03T12:03:42.294Z,2.78
2022-11-03T12:06:14.103Z,2.72
2022-11-03T12:08:45.794Z,2.63
2022-11-03T12:11:45.707Z,2.53
2022-11-03T12:14:25.391Z,2.35
2022-11-03T12:16:57.208Z,2.80
2022-11-03T12:19:41.484Z,2.47
2022-11-03T12:22:33.885Z,2.13
2022-11-03T12:25:06.183Z,2.45
2022-11-03T12:27:42.857Z,2.30
2022-11-03T12:30:16.442Z,2.45
2022-11-03T12:32:48.113Z,3.35
2022-11-03T12:35:19.749Z,2.50
2022-11-03T12:37:51.390Z,2.70
2022-11-03T12:40:23.036Z,2.50
2022-11-03T12:42:56.045Z,2.13
2022-11-03T12:45:27.686Z,2.58
2022-11-03T12:47:59.364Z,2.63
2022-11-03T12:50:31.027Z,2.25
2022-11-03T12:53:02.781Z,2.65
2022-11-03T12:55:34.588Z,2.40
2022-11-03T12:58:07.936Z,2.80
2022-11-03T13:00:40.153Z,2.55
2022-11-03T13:03:11.894Z,2.47
2022-11-03T13:05:43.533Z,3.08
2022-11-03T13:08:15.234Z,3.00
2022-11-03T13:10:46.917Z,3.35
2022-11-03T13:13:20.280Z,2.50
2022-11-03T13:15:51.944Z,2.83
2022-11-03T13:18:23.593Z,2.90
2022-11-03T13:20:55.240Z,2.67
2022-11-03T13:23:26.985Z,2.95
2022-11-03T13:25:58.714Z,2.42
2022-11-03T13:28:31.788Z,2.65
2022-11-03T13:31:03.440Z,2.65
2022-11-03T13:33:35.124Z,2.78
2022-11-03T13:36:07.674Z,2.33
2022-11-03T13:38:39.503Z,2.38
2022-11-03T13:41:11.160Z,2.50
2022-11-03T13:43:44.163Z,2.47
2022-11-03T13:46:15.818Z,2.50
2022-11-03T13:51:39.109Z,2.70
2022-11-03T13:59:56.177Z,3.47
2022-11-03T14:05:20.292Z,3.03
2022-11-03T14:07:51.947Z,2.63
2022-11-03T14:10:23.641Z,3.00
2022-11-03T14:12:55.420Z,3.00
2022-11-03T14:15:28.404Z,3.00
2022-11-03T14:18:00.090Z,2.80
2022-11-03T14:20:31.716Z,2.70
2022-11-03T14:23:03.582Z,3.08
2022-11-03T14:25:35.463Z,3.10
2022-11-03T14:28:07.252Z,2.92
2022-11-03T14:30:40.322Z,2.83
2022-11-03T14:33:12.365Z,2.47
2022-11-03T14:35:44.244Z,2.78
2022-11-03T14:38:15.898Z,2.70
2022-11-03T14:40:47.567Z,3.30
2022-11-03T14:43:19.257Z,2.87
2022-11-03T14:45:52.295Z,2.90
2022-11-03T14:48:24.031Z,3.33
2022-11-03T14:50:55.685Z,3.20
2022-11-03T14:53:27.359Z,2.95
2022-11-03T14:55:59.104Z,3.30
2022-11-03T14:58:30.777Z,3.53
2022-11-03T15:01:03.815Z,3.40
2022-11-03T15:03:35.502Z,3.00
2022-11-03T15:06:07.283Z,3.30
2022-11-03T15:08:39.005Z,3.70
2022-11-03T15:11:10.699Z,3.50
2022-11-03T15:13:46.022Z,3.03
2022-11-03T15:16:21.621Z,3.67
2022-11-03T15:18:53.277Z,3.17
2022-11-03T15:21:24.965Z,4.03
2022-11-03T15:26:48.239Z,3.73
2022-11-03T15:29:19.879Z,3.67
2022-11-03T15:31:52.898Z,3.87
2022-11-03T15:34:24.599Z,4.03
2022-11-03T15:36:56.264Z,4.23
2022-11-03T15:39:27.893Z,4.23
2022-11-03T15:41:59.691Z,4.40
2022-11-03T15:44:31.379Z,4.37
2022-11-03T15:47:04.446Z,4.33
2022-11-03T15:49:36.083Z,4.93
2022-11-03T15:52:07.784Z,5.30
2022-11-03T15:54:42.411Z,5.50
2022-11-03T15:59:45.990Z,5.20
2022-11-03T16:02:40.143Z,5.67
2022-11-03T16:05:10.644Z,6.40
2022-11-03T16:07:42.343Z,5.43
2022-11-03T16:10:14.119Z,6.30
2022-11-03T16:12:45.778Z,7.20
2022-11-03T16:15:17.470Z,5.93
2022-11-03T16:17:50.491Z,6.40
2022-11-03T16:20:22.141Z,6.47
2022-11-03T16:22:53.828Z,6.50
2022-11-03T16:25:25.497Z,6.33
2022-11-03T16:27:57.162Z,6.07
2022-11-03T16:30:28.830Z,6.40
2022-11-03T16:33:01.870Z,6.07
2022-11-03T16:35:33.579Z,6.10
2022-11-03T16:38:05.524Z,5.60
2022-11-03T16:40:37.369Z,5.93
2022-11-03T16:43:09.042Z,6.50
2022-11-03T16:45:40.695Z,6.03
2022-11-03T16:48:13.708Z,5.60
2022-11-03T16:50:45.380Z,5.73
2022-11-03T16:53:17.040Z,5.60
2022-11-03T16:55:48.696Z,6.00
2022-11-03T16:58:20.366Z,5.50
2022-11-03T17:00:52.099Z,5.53
2022-11-03T17:03:25.146Z,4.97
2022-11-03T17:05:56.766Z,4.77
2022-11-03T17:11:20.050Z,5.00
2022-11-03T17:13:51.925Z,4.47
2022-11-03T17:16:24.179Z,4.60
2022-11-03T17:18:57.684Z,4.40
2022-11-03T17:21:29.668Z,5.13
2022-11-03T17:24:01.484Z,4.57
2022-11-03T17:26:39.011Z,5.73
2022-11-03T17:29:15.332Z,5.60
2022-11-03T17:31:47.534Z,4.70
2022-11-03T17:34:22.580Z,4.33
2022-11-03T17:36:54.652Z,4.77
2022-11-03T17:39:28.237Z,4.30
2022-11-03T17:42:12.034Z,4.40
2022-11-03T17:44:44.504Z,4.47
2022-11-03T17:47:16.942Z,4.80
2022-11-03T17:49:50.441Z,4.30
2022-11-03T17:52:26.804Z,4.73
2022-11-03T17:55:00.447Z,5.13
2022-11-03T17:57:32.399Z,4.57
2022-11-03T18:00:04.879Z,4.10
2022-11-03T18:02:36.636Z,4.20
2022-11-03T18:05:22.146Z,4.30
2022-11-03T18:07:54.105Z,4.93
2022-11-03T18:10:26.767Z,4.30
2022-11-03T18:13:00.283Z,4.53
2022-11-03T18:15:32.572Z,3.80
2022-11-03T18:18:13.381Z,4.23
2022-11-03T18:20:52.829Z,4.00
2022-11-03T18:23:25.786Z,3.97
2022-11-03T18:25:57.423Z,5.07
2022-11-03T18:28:29.114Z,4.47
2022-11-03T18:31:00.828Z,4.63
2022-11-03T18:33:33.601Z,3.70
2022-11-03T18:36:07.312Z,4.10
2022-11-03T18:38:38.970Z,4.23
2022-11-03T18:41:12.672Z,4.07
2022-11-03T18:43:44.866Z,4.70
2022-11-03T18:46:16.479Z,4.27
2022-11-03T18:48:48.150Z,4.13
2022-11-03T18:51:21.109Z,3.80
2022-11-03T18:53:52.770Z,4.40
2022-11-03T18:56:24.455Z,4.07
2022-11-03T18:58:56.738Z,5.10
2022-11-03T19:01:28.606Z,5.53
2022-11-03T19:04:00.356Z,4.33
2022-11-03T19:06:33.338Z,4.30
2022-11-03T19:09:05.002Z,5.10
2022-11-03T19:11:36.637Z,4.80
2022-11-03T19:14:09.471Z,4.30
2022-11-03T19:16:50.228Z,4.60
2022-11-03T19:19:32.809Z,4.77
2022-11-03T19:22:10.580Z,4.73
2022-11-03T19:24:42.283Z,5.33
2022-11-03T19:27:15.106Z,5.23
2022-11-03T19:29:46.772Z,5.57
2022-11-03T19:32:20.272Z,5.27
2022-11-03T19:34:54.147Z,5.50
2022-11-03T19:37:32.420Z,5.90
2022-11-03T19:40:08.125Z,5.40
2022-11-03T19:42:39.837Z,5.37
2022-11-03T19:45:13.475Z,5.27
2022-11-03T19:48:10.668Z,5.83
2022-11-03T19:50:37.986Z,5.70
2022-11-03T19:53:13.987Z,5.80
2022-11-03T19:55:45.646Z,6.03
2022-11-03T19:58:18.577Z,6.80
2022-11-03T20:00:50.522Z,6.00
2022-11-03T20:03:22.389Z,6.47
2022-11-03T20:05:54.974Z,6.30
2022-11-03T20:08:29.064Z,5.77
2022-11-03T20:11:01.013Z,5.80
2022-11-03T20:13:36.947Z,5.83
2022-11-03T20:16:12.346Z,6.63
2022-11-03T20:18:44.167Z,6.40
2022-11-03T20:21:16.155Z,6.70
2022-11-03T20:23:49.259Z,6.07
2022-11-03T20:26:21.964Z,6.43
2022-11-03T20:28:53.793Z,6.13
2022-11-03T20:31:25.490Z,5.87
2022-11-03T20:33:57.160Z,6.60
2022-11-03T20:36:29.850Z,6.37
2022-11-03T20:39:02.872Z,6.90
2022-11-03T20:41:34.493Z,7.07
2022-11-03T20:44:06.131Z,7.20
2022-11-03T20:46:37.772Z,7.43
2022-11-03T20:49:12.418Z,7.70
2022-11-03T20:51:45.059Z,7.40
2022-11-03T20:54:18.973Z,6.60
2022-11-03T20:56:50.615Z,7.50
2022-11-03T20:59:22.300Z,7.37
2022-11-03T21:01:54.052Z,7.30
2022-11-03T21:04:25.845Z,7.45
2022-11-03T21:06:57.525Z,8.27
2022-11-03T21:09:30.531Z,6.77
2022-11-03T21:12:02.219Z,7.60
2022-11-03T21:14:33.860Z,7.73
2022-11-03T21:17:06.117Z,7.40
2022-11-03T21:19:37.907Z,6.90
2022-11-03T21:22:30.970Z,7.67
2022-11-03T21:25:11.384Z,7.47
2022-11-03T21:27:43.021Z,6.77
2022-11-03T21:30:15.094Z,7.27
2022-11-03T21:32:46.827Z,7.80
2022-11-03T21:35:19.148Z,7.57
2022-11-03T21:37:50.855Z,8.07
2022-11-03T21:40:23.842Z,8.00
2022-11-03T21:42:55.467Z,6.57
2022-11-03T21:45:27.111Z,6.63
2022-11-03T21:47:58.773Z,6.50
2022-11-03T21:50:30.400Z,6.30
2022-11-03T21:53:02.065Z,5.87
2022-11-03T21:55:35.138Z,5.60
2022-11-03T21:58:06.907Z,6.23
2022-11-03T22:00:38.552Z,5.93
2022-11-03T22:03:10.622Z,5.60
2022-11-03T22:05:42.702Z,5.73
2022-11-03T22:08:14.529Z,5.70
2022-11-03T22:10:47.751Z,5.50
2022-11-03T22:13:19.422Z,6.27
2022-11-03T22:15:51.062Z,5.50
2022-11-03T22:18:23.347Z,5.37
2022-11-03T22:20:57.459Z,5.53
2022-11-03T22:23:30.781Z,5.77
2022-11-03T22:26:08.809Z,5.77
2022-11-03T22:28:40.510Z,4.30
2022-11-03T22:31:12.173Z,3.10
2022-11-03T22:33:43.997Z,3.73
2022-11-03T22:36:21.311Z,2.53
2022-11-03T22:38:53.850Z,2.07
2022-11-03T22:41:26.893Z,1.63
2022-11-03T22:43:58.570Z,1.40
2022-11-03T22:46:30.395Z,1.70
2022-11-03T22:49:02.077Z,1.60
2022-11-03T22:51:33.836Z,1.50
2022-11-03T22:54:05.670Z,1.60
2022-11-03T22:56:38.924Z,1.60
2022-11-03T22:59:11.073Z,1.80
